Time;durP1;ratioP1;P1;durP2;ratioP2;P2;SDS_P1;SDS_P2;PMS_P1;PMS_P2;Temp;Humidity;BMP_temperature;BMP_pressure;BME280_temperature;BME280_humidity;BME280_pressure;Samples;Min_cycle;Max_cycle;Signal;HPM_P1;HPM_P2
2022/10/09 00:02:02;;;;;;;13.40;8.00;;;13.50;61.10;;;;;;5089826;27;20438;-87
2022/10/09 00:04:29;;;;;;;15.47;7.73;;;13.70;60.70;;;;;;5103537;28;20443;-88
2022/10/09 00:06:56;;;;;;;16.60;8.30;;;13.90;60.10;;;;;;5123392;27;20546;-87
2022/10/09 00:09:23;;;;;;;9.63;6.73;;;13.90;59.50;;;;;;5104457;27;20640;-89
2022/10/09 00:11:50;;;;;;;20.27;8.60;;;14.00;59.40;;;;;;5117257;27;20442;-87
2022/10/09 00:14:18;;;;;;;20.07;9.17;;;14.10;59.30;;;;;;5082879;28;20480;-88
2022/10/09 00:16:45;;;;;;;14.60;8.70;;;14.20;59.10;;;;;;5107975;27;20511;-86
2022/10/09 00:19:13;;;;;;;119.07;13.63;;;14.30;59.00;;;;;;5115813;27;20446;-87
2022/10/09 00:21:40;;;;;;;61.40;10.57;;;14.20;58.60;;;;;;5107111;27;20441;-88
2022/10/09 00:24:07;;;;;;;13.80;8.63;;;14.10;59.20;;;;;;5123412;27;20546;-87
2022/10/09 00:26:34;;;;;;;14.90;7.77;;;14.10;59.70;;;;;;5092612;28;20463;-87
2022/10/09 00:29:02;;;;;;;69.20;10.67;;;14.20;59.60;;;;;;5100065;28;20476;-89
2022/10/09 00:31:29;;;;;;;56.23;11.63;;;14.10;58.90;;;;;;5090220;28;20462;-87
2022/10/09 00:33:56;;;;;;;27.50;7.90;;;13.70;60.00;;;;;;5104530;27;20466;-87
2022/10/09 00:36:26;;;;;;;18.30;8.87;;;13.70;60.60;;;;;;5081757;27;20969;-89
2022/10/09 00:38:54;;;;;;;17.07;7.63;;;13.70;61.10;;;;;;5098334;27;20445;-87
2022/10/09 00:41:23;;;;;;;27.03;8.70;;;13.80;61.00;;;;;;5089500;28;20466;-88
2022/10/09 00:43:52;;;;;;;47.10;10.20;;;13.70;61.20;;;;;;5106911;27;20449;-87
2022/10/09 00:46:25;;;;;;;19.53;8.80;;;13.90;60.90;;;;;;5103091;28;20499;-87
2022/10/09 00:49:02;;;;;;;25.17;8.63;;;13.90;60.40;;;;;;5097502;28;20541;-88
2022/10/09 00:51:32;;;;;;;18.87;9.00;;;14.00;60.20;;;;;;5120588;27;20518;-87
2022/10/09 00:54:00;;;;;;;45.63;8.67;;;13.90;60.60;;;;;;5101931;28;20450;-87
2022/10/09 00:56:28;;;;;;;42.20;9.90;;;13.80;60.60;;;;;;5091243;28;20504;-87
2022/10/09 00:58:57;;;;;;;33.97;7.63;;;13.70;61.10;;;;;;5093779;27;20508;-87
2022/10/09 01:01:25;;;;;;;35.67;8.00;;;13.70;60.80;;;;;;5096226;27;20511;-89
2022/10/09 01:03:52;;;;;;;38.67;7.93;;;13.40;61.10;;;;;;5108510;27;20495;-86
2022/10/09 01:06:27;;;;;;;14.77;6.50;;;13.50;61.50;;;;;;5094624;27;20481;-88
2022/10/09 01:09:03;;;;;;;27.70;8.83;;;13.70;61.40;;;;;;5096221;27;20510;-87
2022/10/09 01:11:38;;;;;;;23.77;7.50;;;13.50;60.80;;;;;;5113372;27;20488;-87
2022/10/09 01:14:18;;;;;;;25.97;8.50;;;13.40;61.40;;;;;;5128203;27;20523;-88
2022/10/09 01:16:52;;;;;;;50.70;8.87;;;13.60;61.00;;;;;;5107107;27;21190;-90
2022/10/09 01:19:35;;;;;;;13.27;7.47;;;13.80;60.50;;;;;;5092351;27;20562;-88
2022/10/09 01:22:13;;;;;;;28.57;8.80;;;13.90;60.00;;;;;;5125071;27;20506;-87
2022/10/09 01:24:53;;;;;;;29.37;9.40;;;14.00;60.90;;;;;;5123297;27;20941;-90
2022/10/09 01:27:25;;;;;;;57.77;9.10;;;14.10;59.90;;;;;;5104169;27;20480;-87
2022/10/09 01:29:56;;;;;;;22.30;7.80;;;14.00;59.60;;;;;;5113915;27;20443;-89
2022/10/09 01:32:27;;;;;;;14.60;7.27;;;13.80;60.10;;;;;;5111504;27;20544;-86
2022/10/09 01:34:55;;;;;;;21.50;13.30;;;13.90;59.90;;;;;;5126681;27;20964;-90
2022/10/09 01:37:23;;;;;;;60.67;7.77;;;14.00;59.40;;;;;;5109419;27;20490;-89
2022/10/09 01:39:52;;;;;;;29.40;7.83;;;14.00;59.10;;;;;;5093431;27;20451;-88
2022/10/09 01:42:23;;;;;;;19.80;6.60;;;13.90;59.50;;;;;;5112655;27;20541;-88
2022/10/09 01:44:50;;;;;;;43.03;7.50;;;14.00;59.20;;;;;;5096234;28;20466;-88
2022/10/09 01:47:20;;;;;;;9.37;5.70;;;14.00;58.60;;;;;;5114618;27;20470;-87
2022/10/09 01:49:54;;;;;;;9.60;5.50;;;13.80;58.90;;;;;;5105685;27;20449;-87
2022/10/09 01:52:36;;;;;;;81.40;8.83;;;13.70;59.20;;;;;;5096615;27;20472;-87
2022/10/09 01:55:13;;;;;;;18.83;5.70;;;13.30;58.80;;;;;;5109548;27;20510;-88
2022/10/09 01:57:47;;;;;;;31.90;7.37;;;13.20;59.30;;;;;;5111310;27;20466;-87
2022/10/09 02:00:15;;;;;;;49.93;6.47;;;13.10;59.10;;;;;;5105048;27;20602;-87
2022/10/09 02:02:43;;;;;;;9.37;4.97;;;13.10;59.40;;;;;;5107829;27;20485;-87
2022/10/09 02:05:13;;;;;;;12.70;5.47;;;13.20;59.70;;;;;;5111308;27;20535;-87
2022/10/09 02:07:41;;;;;;;6.13;4.63;;;13.30;59.00;;;;;;5096084;27;20539;-87
2022/10/09 02:10:09;;;;;;;6.80;5.23;;;13.30;59.00;;;;;;5103230;27;20823;-89
2022/10/09 02:12:41;;;;;;;7.53;4.77;;;13.20;58.30;;;;;;5107769;27;20454;-89
2022/10/09 02:15:10;;;;;;;8.70;4.90;;;13.10;58.60;;;;;;5093713;27;20465;-91
2022/10/09 02:17:43;;;;;;;15.00;4.40;;;13.10;58.90;;;;;;5103554;27;20497;-88
2022/10/09 02:20:18;;;;;;;7.67;4.50;;;12.90;58.20;;;;;;5093146;27;20446;-88
2022/10/09 02:22:47;;;;;;;7.00;4.30;;;12.80;58.70;;;;;;5091421;27;20961;-87
2022/10/09 02:25:15;;;;;;;6.97;4.37;;;12.90;58.60;;;;;;5106792;27;20447;-89
2022/10/09 02:27:42;;;;;;;5.57;4.07;;;12.90;58.60;;;;;;5086549;28;20505;-87
2022/10/09 02:30:12;;;;;;;8.43;4.43;;;12.70;58.40;;;;;;5117782;27;20553;-87
2022/10/09 02:32:39;;;;;;;6.43;4.23;;;12.70;60.00;;;;;;5100287;27;20492;-87
2022/10/09 02:35:08;;;;;;;8.07;4.90;;;12.90;58.60;;;;;;5099239;27;21034;-87
2022/10/09 02:37:35;;;;;;;25.87;5.97;;;12.90;58.10;;;;;;5124738;27;20461;-87
2022/10/09 02:40:02;;;;;;;12.70;5.37;;;12.70;58.00;;;;;;5092316;27;20434;-88
2022/10/09 02:42:29;;;;;;;5.50;4.27;;;12.50;58.40;;;;;;5087282;27;20485;-87
2022/10/09 02:44:56;;;;;;;6.37;4.83;;;12.60;58.70;;;;;;5092583;27;20462;-88
2022/10/09 02:47:25;;;;;;;8.13;5.10;;;12.60;59.00;;;;;;5099165;27;20485;-87
2022/10/09 02:49:52;;;;;;;6.60;4.70;;;12.80;58.50;;;;;;5094843;27;20467;-86
2022/10/09 02:52:19;;;;;;;5.67;4.13;;;12.90;58.00;;;;;;5124268;27;20545;-88
2022/10/09 02:54:46;;;;;;;7.30;5.13;;;13.00;57.50;;;;;;5105843;27;20936;-87
2022/10/09 02:57:13;;;;;;;9.97;5.27;;;12.80;57.20;;;;;;5090952;27;20577;-89
2022/10/09 02:59:40;;;;;;;8.30;5.53;;;12.80;57.80;;;;;;5104586;27;20486;-87
2022/10/09 03:02:08;;;;;;;6.13;4.47;;;12.70;57.90;;;;;;5125964;27;20526;-87
2022/10/09 03:04:36;;;;;;;6.47;4.57;;;12.60;58.00;;;;;;5122180;27;20454;-89
2022/10/09 03:07:03;;;;;;;5.47;4.60;;;12.70;58.10;;;;;;5116966;27;20459;-87
2022/10/09 03:09:30;;;;;;;6.50;4.70;;;12.70;57.40;;;;;;5121464;27;20929;-87
2022/10/09 03:11:57;;;;;;;5.30;3.90;;;12.50;57.00;;;;;;5093789;27;20962;-88
2022/10/09 03:14:24;;;;;;;3.67;3.20;;;12.30;57.50;;;;;;5094073;27;20855;-87
2022/10/09 03:16:51;;;;;;;4.23;3.83;;;12.20;57.80;;;;;;5106462;27;20463;-90
2022/10/09 03:19:18;;;;;;;6.07;4.30;;;12.30;57.80;;;;;;5090550;27;20857;-88
2022/10/09 03:21:47;;;;;;;3.63;3.30;;;12.50;57.50;;;;;;5100546;27;20475;-90
2022/10/09 03:24:14;;;;;;;6.90;4.00;;;12.60;56.90;;;;;;5115939;27;20467;-88
2022/10/09 03:26:41;;;;;;;8.83;4.80;;;12.40;56.90;;;;;;5121330;27;20486;-86
2022/10/09 03:29:08;;;;;;;7.17;4.27;;;12.00;57.60;;;;;;5086814;28;20442;-87
2022/10/09 03:31:35;;;;;;;6.67;3.87;;;12.10;58.10;;;;;;5101599;27;20499;-87
2022/10/09 03:34:02;;;;;;;5.37;4.17;;;12.10;58.10;;;;;;5094161;27;20470;-90
2022/10/09 03:36:29;;;;;;;16.13;4.57;;;12.10;58.10;;;;;;5116641;27;20501;-87
2022/10/09 03:38:58;;;;;;;6.50;3.70;;;12.10;57.90;;;;;;5122165;27;20442;-91
2022/10/09 03:41:25;;;;;;;5.40;4.00;;;12.10;57.60;;;;;;5109198;27;20474;-87
2022/10/09 03:43:52;;;;;;;6.80;4.63;;;11.70;57.80;;;;;;5106479;27;20579;-91
2022/10/09 03:46:20;;;;;;;4.77;4.20;;;11.50;58.60;;;;;;5114289;27;20969;-87
2022/10/09 03:48:47;;;;;;;9.43;3.80;;;11.40;59.10;;;;;;5106481;28;20442;-90
2022/10/09 03:51:14;;;;;;;9.33;4.73;;;11.60;58.80;;;;;;5102376;27;20505;-87
2022/10/09 03:53:41;;;;;;;5.23;3.10;;;11.50;58.60;;;;;;5101935;27;20498;-87
2022/10/09 03:56:09;;;;;;;5.33;4.10;;;11.50;58.50;;;;;;5114577;27;20470;-90
2022/10/09 03:58:36;;;;;;;7.90;3.70;;;11.80;58.50;;;;;;5094162;27;20538;-88
2022/10/09 04:01:03;;;;;;;7.13;3.30;;;11.90;57.80;;;;;;5103336;27;21254;-86
2022/10/09 04:03:30;;;;;;;5.07;3.57;;;11.70;57.40;;;;;;5091388;27;20478;-87
2022/10/09 04:05:58;;;;;;;11.03;3.53;;;11.90;57.60;;;;;;5091232;27;20888;-87
2022/10/09 04:08:25;;;;;;;4.90;3.67;;;11.90;57.20;;;;;;5091333;27;20594;-87
2022/10/09 04:10:56;;;;;;;4.40;3.90;;;11.60;57.80;;;;;;5104197;27;20478;-87
2022/10/09 04:13:25;;;;;;;6.93;4.10;;;11.60;58.00;;;;;;5103067;27;20446;-87
2022/10/09 04:15:52;;;;;;;4.00;3.03;;;11.80;58.00;;;;;;5115226;27;20905;-86
2022/10/09 04:18:20;;;;;;;5.37;3.07;;;12.00;57.60;;;;;;5086410;28;20555;-89
2022/10/09 04:20:50;;;;;;;6.90;3.60;;;12.20;56.90;;;;;;5105360;27;20488;-88
2022/10/09 04:23:17;;;;;;;3.60;2.90;;;12.30;56.40;;;;;;5083907;27;21115;-87
2022/10/09 04:25:44;;;;;;;3.73;3.37;;;12.30;55.90;;;;;;5115870;27;20446;-89
2022/10/09 04:28:11;;;;;;;6.90;3.50;;;12.20;55.50;;;;;;5087818;27;20476;-87
2022/10/09 04:30:40;;;;;;;6.67;4.33;;;11.90;55.70;;;;;;5099091;27;20538;-87
2022/10/09 04:33:07;;;;;;;4.30;3.50;;;11.40;57.10;;;;;;5103344;28;20486;-87
2022/10/09 04:35:34;;;;;;;9.30;3.73;;;11.30;57.70;;;;;;5089249;27;20520;-88
2022/10/09 04:38:01;;;;;;;4.97;4.00;;;11.20;57.70;;;;;;5109115;27;20470;-87
2022/10/09 04:40:28;;;;;;;13.60;4.10;;;11.30;57.60;;;;;;5106328;27;20462;-89
2022/10/09 04:42:55;;;;;;;4.90;4.27;;;11.50;58.10;;;;;;5087721;27;20586;-85
2022/10/09 04:45:23;;;;;;;8.30;5.83;;;11.50;57.40;;;;;;5118062;27;20470;-88
2022/10/09 04:47:51;;;;;;;10.23;5.47;;;11.60;57.40;;;;;;5116351;27;20538;-86
2022/10/09 04:50:18;;;;;;;8.50;4.60;;;11.50;57.30;;;;;;5117167;27;20504;-85
2022/10/09 04:52:57;;;;;;;8.70;5.70;;;11.50;57.50;;;;;;5095274;28;20872;-88
2022/10/09 04:55:24;;;;;;;7.57;5.20;;;11.40;57.30;;;;;;5083029;28;20470;-86
2022/10/09 04:57:51;;;;;;;9.80;4.20;;;11.40;57.50;;;;;;5100419;28;20477;-87
2022/10/09 05:00:18;;;;;;;17.80;12.40;;;11.40;57.70;;;;;;5083946;28;20482;-87
2022/10/09 05:02:45;;;;;;;8.33;5.90;;;11.20;57.50;;;;;;5108509;28;20536;-90
2022/10/09 05:05:14;;;;;;;9.60;5.20;;;11.20;57.90;;;;;;5083138;28;20537;-86
2022/10/09 05:07:41;;;;;;;5.20;4.10;;;11.40;57.90;;;;;;5086621;28;20549;-88
2022/10/09 05:10:09;;;;;;;6.30;4.50;;;11.40;58.00;;;;;;5098416;28;20526;-87
2022/10/09 05:12:36;;;;;;;5.33;3.70;;;11.40;57.80;;;;;;5091798;28;20546;-87
2022/10/09 05:15:03;;;;;;;11.47;3.90;;;11.50;57.70;;;;;;5076859;28;20520;-87
2022/10/09 05:17:30;;;;;;;7.90;5.00;;;11.60;57.70;;;;;;5101888;28;20869;-87
2022/10/09 05:19:57;;;;;;;6.90;4.20;;;11.40;57.30;;;;;;5121340;28;20491;-87
2022/10/09 05:22:26;;;;;;;7.70;4.50;;;11.50;57.80;;;;;;5081310;28;20451;-87
2022/10/09 05:24:53;;;;;;;4.83;3.53;;;11.80;57.70;;;;;;5105763;28;20544;-84
2022/10/09 05:27:20;;;;;;;7.00;4.20;;;11.90;57.30;;;;;;5082838;28;20498;-88
2022/10/09 05:29:47;;;;;;;6.20;3.60;;;11.90;56.80;;;;;;5119016;28;20449;-87
2022/10/09 05:32:14;;;;;;;4.77;3.57;;;12.00;56.80;;;;;;5099086;28;20455;-87
2022/10/09 05:34:41;;;;;;;7.60;3.73;;;12.00;56.70;;;;;;5117508;28;20443;-87
2022/10/09 05:37:08;;;;;;;6.90;4.80;;;11.70;56.00;;;;;;5087247;28;20790;-88
2022/10/09 05:39:38;;;;;;;7.23;3.73;;;11.70;57.00;;;;;;5104995;28;20969;-88
2022/10/09 05:42:06;;;;;;;5.50;3.60;;;11.90;57.60;;;;;;5102677;28;20465;-89
2022/10/09 05:44:33;;;;;;;4.47;3.33;;;12.00;56.20;;;;;;5108439;28;20548;-87
2022/10/09 05:47:00;;;;;;;5.10;3.97;;;12.10;56.20;;;;;;5101552;28;20502;-87
2022/10/09 05:49:27;;;;;;;4.73;4.00;;;12.10;55.90;;;;;;5081119;27;20991;-89
2022/10/09 05:51:54;;;;;;;5.90;3.80;;;12.10;56.00;;;;;;5088952;27;20476;-87
2022/10/09 05:54:22;;;;;;;4.10;3.57;;;11.70;56.40;;;;;;5122514;27;20437;-91
2022/10/09 05:56:50;;;;;;;46.97;24.73;;;11.80;56.70;;;;;;5103629;27;20473;-87
2022/10/09 05:59:19;;;;;;;9.90;6.17;;;11.70;56.90;;;;;;5106900;27;20470;-87
2022/10/09 06:01:48;;;;;;;7.57;4.30;;;11.60;57.10;;;;;;5106366;27;20454;-87
2022/10/09 06:04:17;;;;;;;16.03;5.30;;;11.60;57.60;;;;;;5105113;27;20498;-87
2022/10/09 06:06:47;;;;;;;7.73;5.90;;;11.40;57.60;;;;;;5121754;27;20465;-88
2022/10/09 06:09:15;;;;;;;11.90;6.63;;;11.50;57.60;;;;;;5093234;27;20827;-87
2022/10/09 06:11:42;;;;;;;6.20;4.40;;;11.60;57.50;;;;;;5100258;27;20482;-87
2022/10/09 06:14:12;;;;;;;8.70;5.70;;;11.70;57.60;;;;;;5111502;27;20455;-87
2022/10/09 06:16:41;;;;;;;7.10;4.93;;;11.70;57.30;;;;;;5121830;27;20515;-87
2022/10/09 06:19:11;;;;;;;13.33;5.50;;;11.70;57.40;;;;;;5094073;27;20456;-90
2022/10/09 06:21:38;;;;;;;6.40;4.90;;;11.60;57.30;;;;;;5126467;27;20484;-88
2022/10/09 06:24:06;;;;;;;7.27;5.30;;;11.70;57.60;;;;;;5107022;28;20463;-91
2022/10/09 06:26:34;;;;;;;14.23;4.20;;;11.80;57.40;;;;;;5090003;27;20506;-86
2022/10/09 06:29:02;;;;;;;13.63;5.13;;;11.50;57.40;;;;;;5114887;27;20462;-85
2022/10/09 06:31:32;;;;;;;15.93;5.73;;;11.50;58.10;;;;;;5093327;27;20453;-86
2022/10/09 06:34:01;;;;;;;13.00;5.40;;;11.70;58.10;;;;;;5114030;27;21040;-87
2022/10/09 06:36:30;;;;;;;6.73;5.10;;;11.70;57.80;;;;;;5123190;27;20474;-87
2022/10/09 06:38:59;;;;;;;13.10;6.23;;;11.30;58.40;;;;;;5114134;27;21251;-86
2022/10/09 06:41:27;;;;;;;14.10;6.00;;;11.00;59.60;;;;;;5086660;27;20434;-87
2022/10/09 06:43:56;;;;;;;10.80;6.00;;;10.90;59.70;;;;;;5117866;27;21037;-89
2022/10/09 06:46:27;;;;;;;10.87;6.70;;;11.20;59.80;;;;;;5121573;27;20513;-86
2022/10/09 06:48:58;;;;;;;9.90;5.77;;;11.60;59.30;;;;;;5102960;27;20486;-86
2022/10/09 06:51:26;;;;;;;29.20;9.00;;;11.70;58.40;;;;;;5115974;27;20568;-85
2022/10/09 06:53:56;;;;;;;14.93;7.27;;;11.60;58.20;;;;;;5102395;28;20447;-89
2022/10/09 06:56:25;;;;;;;13.83;7.30;;;11.20;59.60;;;;;;5119659;27;20953;-88
2022/10/09 06:58:52;;;;;;;14.10;6.30;;;11.30;59.40;;;;;;5087238;27;20982;-86
2022/10/09 07:01:22;;;;;;;9.80;6.50;;;11.60;59.30;;;;;;5095564;27;20765;-87
2022/10/09 07:03:54;;;;;;;9.80;7.57;;;11.70;59.10;;;;;;5099348;27;21145;-88
2022/10/09 07:06:25;;;;;;;7.80;6.40;;;11.90;58.80;;;;;;5095114;27;20490;-86
2022/10/09 07:08:54;;;;;;;12.17;6.73;;;11.70;58.80;;;;;;5117963;27;20446;-87
2022/10/09 07:11:23;;;;;;;21.03;7.27;;;11.30;59.10;;;;;;5099657;27;20820;-85
2022/10/09 07:13:52;;;;;;;6.67;5.30;;;11.30;59.70;;;;;;5096503;27;20831;-87
2022/10/09 07:16:21;;;;;;;24.70;12.70;;;11.40;60.00;;;;;;5099826;27;20445;-85
2022/10/09 07:18:49;;;;;;;41.90;21.00;;;11.60;59.70;;;;;;5113787;27;21006;-88
2022/10/09 07:21:16;;;;;;;13.20;8.70;;;11.90;58.90;;;;;;5100076;27;20454;-85
2022/10/09 07:23:44;;;;;;;14.47;7.03;;;11.90;58.60;;;;;;5099807;27;20481;-85
2022/10/09 07:26:14;;;;;;;14.90;6.60;;;11.80;58.90;;;;;;5114953;27;20468;-86
2022/10/09 07:28:42;;;;;;;9.20;6.67;;;11.90;58.90;;;;;;5085634;27;20466;-86
2022/10/09 07:31:10;;;;;;;9.30;6.17;;;11.80;59.10;;;;;;5101487;27;20457;-86
2022/10/09 07:33:38;;;;;;;9.20;5.37;;;11.90;59.10;;;;;;5088639;27;20492;-86
2022/10/09 07:36:06;;;;;;;9.03;6.37;;;11.70;59.30;;;;;;5116547;27;20461;-87
2022/10/09 07:38:34;;;;;;;8.50;6.03;;;11.50;60.10;;;;;;5080332;27;20558;-87
2022/10/09 07:41:05;;;;;;;6.77;5.40;;;11.80;59.80;;;;;;5106242;27;20511;-90
2022/10/09 07:43:34;;;;;;;7.80;5.93;;;12.00;59.20;;;;;;5117047;27;21056;-87
2022/10/09 07:46:02;;;;;;;10.30;6.70;;;11.80;59.20;;;;;;5099914;27;20512;-89
2022/10/09 07:48:29;;;;;;;16.07;8.33;;;12.00;59.60;;;;;;5113754;27;20510;-89
2022/10/09 07:50:57;;;;;;;24.43;12.37;;;11.90;59.30;;;;;;5112664;27;20474;-86
2022/10/09 07:53:24;;;;;;;16.50;8.10;;;12.10;59.00;;;;;;5099196;28;20499;-87
2022/10/09 07:55:51;;;;;;;13.03;7.43;;;12.20;58.90;;;;;;5087431;27;20993;-86
2022/10/09 07:58:19;;;;;;;12.23;8.17;;;12.40;58.60;;;;;;5103676;27;20572;-88
2022/10/09 08:00:46;;;;;;;10.90;7.10;;;12.50;58.10;;;;;;5113437;27;20439;-86
2022/10/09 08:03:13;;;;;;;12.60;6.80;;;12.50;57.90;;;;;;5114356;27;20468;-87
2022/10/09 08:05:40;;;;;;;12.53;7.53;;;12.40;59.10;;;;;;5096025;27;20458;-86
2022/10/09 08:08:08;;;;;;;14.13;9.07;;;12.30;58.70;;;;;;5115498;27;21198;-85
2022/10/09 08:10:35;;;;;;;10.30;6.80;;;12.50;58.90;;;;;;5098369;27;20541;-85
2022/10/09 08:13:02;;;;;;;10.30;7.80;;;12.50;58.80;;;;;;5104533;28;20961;-87
2022/10/09 08:15:30;;;;;;;17.90;8.33;;;12.60;58.70;;;;;;5116736;27;20446;-89
2022/10/09 08:17:57;;;;;;;14.90;8.83;;;12.70;58.30;;;;;;5111476;27;20531;-86
2022/10/09 08:20:24;;;;;;;15.70;7.80;;;12.80;58.10;;;;;;5116561;27;20482;-87
2022/10/09 08:22:51;;;;;;;10.07;7.30;;;12.80;58.10;;;;;;5100995;28;20439;-88
2022/10/09 08:25:18;;;;;;;12.20;8.30;;;12.60;58.60;;;;;;5116598;27;20545;-88
2022/10/09 08:27:46;;;;;;;10.87;7.60;;;12.50;58.50;;;;;;5086478;27;20461;-88
2022/10/09 08:30:13;;;;;;;9.90;6.90;;;12.50;58.70;;;;;;5118322;27;20446;-88
2022/10/09 08:32:41;;;;;;;11.53;6.97;;;12.60;58.80;;;;;;5099361;27;20450;-87
2022/10/09 08:35:09;;;;;;;9.37;6.40;;;12.70;58.50;;;;;;5080658;28;20451;-89
2022/10/09 08:37:36;;;;;;;10.50;6.70;;;12.70;58.60;;;;;;5079338;27;21149;-87
2022/10/09 08:40:04;;;;;;;13.40;7.33;;;12.70;58.70;;;;;;5087842;27;20969;-87
2022/10/09 08:42:38;;;;;;;15.83;9.07;;;12.90;58.50;;;;;;5111933;27;20493;-88
2022/10/09 08:45:11;;;;;;;10.40;6.80;;;13.00;58.50;;;;;;5110381;27;20938;-87
2022/10/09 08:47:44;;;;;;;11.67;7.33;;;13.00;58.60;;;;;;5079328;28;20557;-87
2022/10/09 08:50:15;;;;;;;15.70;13.73;;;12.80;58.60;;;;;;5078006;28;20890;-87
2022/10/09 08:52:50;;;;;;;9.37;7.13;;;12.60;59.50;;;;;;5110721;27;20499;-86
2022/10/09 08:55:21;;;;;;;9.60;6.57;;;12.80;58.90;;;;;;5082278;27;20973;-86
2022/10/09 08:57:51;;;;;;;10.70;6.40;;;12.90;58.40;;;;;;5115970;27;20474;-86
2022/10/09 09:00:20;;;;;;;11.37;7.23;;;12.80;59.10;;;;;;5096549;28;20435;-86
2022/10/09 09:03:02;;;;;;;9.57;6.67;;;13.00;58.90;;;;;;5116164;28;21048;-84
2022/10/09 09:05:36;;;;;;;11.20;7.87;;;13.30;58.70;;;;;;5111301;28;21004;-84
2022/10/09 09:08:15;;;;;;;14.27;7.87;;;13.40;58.40;;;;;;5115719;28;20533;-85
2022/10/09 09:10:49;;;;;;;14.63;8.83;;;13.30;58.70;;;;;;5098203;28;20445;-85
2022/10/09 09:13:30;;;;;;;13.63;8.50;;;13.60;58.50;;;;;;5121265;28;20455;-85
2022/10/09 09:16:05;;;;;;;11.90;7.87;;;13.50;58.80;;;;;;5121626;28;20447;-85
2022/10/09 09:18:45;;;;;;;15.73;9.33;;;13.60;58.30;;;;;;5099623;27;20552;-86
2022/10/09 09:21:32;;;;;;;9.50;6.10;;;13.60;58.60;;;;;;5108661;27;20536;-85
2022/10/09 09:24:03;;;;;;;7.67;6.30;;;13.80;57.80;;;;;;5103097;28;20519;-85
2022/10/09 09:26:30;;;;;;;10.00;7.20;;;13.70;58.30;;;;;;5122717;27;21143;-87
2022/10/09 09:29:02;;;;;;;11.23;7.50;;;13.70;58.70;;;;;;5106320;27;20972;-85
2022/10/09 09:31:35;;;;;;;16.10;8.67;;;13.80;58.60;;;;;;5100376;27;20474;-88
2022/10/09 09:34:09;;;;;;;15.60;8.00;;;13.70;58.60;;;;;;5125987;27;20438;-85
2022/10/09 09:36:42;;;;;;;8.90;7.10;;;13.80;58.60;;;;;;5120037;27;20536;-87
2022/10/09 09:39:10;;;;;;;13.17;7.73;;;13.80;58.90;;;;;;5107673;28;20582;-91
2022/10/09 09:41:40;;;;;;;10.30;7.40;;;13.90;59.20;;;;;;5119858;27;20437;-86
2022/10/09 09:44:09;;;;;;;13.13;7.73;;;14.00;58.90;;;;;;5123740;27;20925;-87
2022/10/09 09:46:38;;;;;;;18.60;14.67;;;14.00;59.00;;;;;;5105103;27;20487;-86
2022/10/09 09:49:17;;;;;;;12.43;7.63;;;13.90;59.20;;;;;;5106247;27;20542;-86
2022/10/09 09:51:44;;;;;;;10.80;7.53;;;13.90;59.80;;;;;;5122142;27;20442;-87
2022/10/09 09:54:17;;;;;;;12.93;8.57;;;13.60;60.80;;;;;;5116845;27;20446;-86
2022/10/09 09:56:46;;;;;;;11.87;7.47;;;13.70;60.00;;;;;;5103884;27;20553;-85
2022/10/09 09:59:32;;;;;;;10.03;7.80;;;13.90;60.20;;;;;;5090632;27;20471;-85
2022/10/09 10:02:10;;;;;;;10.63;7.10;;;13.90;60.60;;;;;;5120829;27;20430;-86
2022/10/09 10:04:47;;;;;;;11.93;8.00;;;13.90;61.00;;;;;;5119884;27;20452;-86
2022/10/09 10:07:15;;;;;;;13.17;8.03;;;13.80;61.00;;;;;;5099874;27;20568;-89
2022/10/09 10:09:42;;;;;;;9.60;7.50;;;13.90;60.80;;;;;;5117097;27;20446;-85
2022/10/09 10:12:16;;;;;;;10.43;8.07;;;14.10;60.40;;;;;;5105543;27;20808;-90
2022/10/09 10:14:50;;;;;;;12.83;8.50;;;14.20;60.30;;;;;;5098703;27;20457;-85
2022/10/09 10:17:27;;;;;;;10.73;7.93;;;14.40;59.90;;;;;;5093548;27;20550;-86
2022/10/09 10:19:56;;;;;;;10.17;7.93;;;14.60;59.60;;;;;;5110432;27;20449;-85
2022/10/09 10:22:26;;;;;;;10.43;7.10;;;14.70;59.60;;;;;;5085189;27;20451;-86
2022/10/09 10:24:56;;;;;;;10.43;7.77;;;14.90;59.30;;;;;;5116547;27;20499;-85
2022/10/09 10:27:29;;;;;;;11.83;8.30;;;15.00;59.00;;;;;;5124712;27;20730;-86
2022/10/09 10:30:00;;;;;;;13.80;8.30;;;15.00;58.60;;;;;;5098545;27;20490;-89
2022/10/09 10:32:32;;;;;;;14.40;8.07;;;15.10;58.60;;;;;;5099279;27;20443;-85
2022/10/09 10:35:04;;;;;;;10.20;6.83;;;15.20;58.70;;;;;;5081958;28;20451;-87
2022/10/09 10:37:40;;;;;;;9.50;6.60;;;15.30;58.50;;;;;;5096942;27;20477;-88
2022/10/09 10:40:16;;;;;;;12.50;7.23;;;15.40;58.10;;;;;;5114878;27;20954;-86
2022/10/09 10:42:51;;;;;;;9.57;7.17;;;15.50;58.10;;;;;;5096909;27;20469;-87
2022/10/09 10:45:25;;;;;;;9.67;7.40;;;15.70;58.40;;;;;;5087874;27;20450;-85
2022/10/09 10:47:55;;;;;;;8.57;6.80;;;16.00;57.50;;;;;;5088997;28;20462;-88
2022/10/09 10:50:29;;;;;;;11.50;7.00;;;16.10;57.30;;;;;;5091488;27;20434;-86
2022/10/09 10:53:06;;;;;;;11.17;7.60;;;16.30;56.70;;;;;;5100696;27;20865;-85
2022/10/09 10:55:47;;;;;;;10.47;6.60;;;16.30;56.70;;;;;;5119129;27;20474;-88
2022/10/09 10:58:25;;;;;;;13.37;6.23;;;16.60;55.60;;;;;;5116022;27;20523;-84
2022/10/09 11:01:03;;;;;;;10.60;5.90;;;16.70;55.50;;;;;;5118900;27;20960;-86
2022/10/09 11:03:43;;;;;;;4.33;3.50;;;16.90;55.10;;;;;;5109622;27;20447;-86
2022/10/09 11:06:23;;;;;;;5.67;2.47;;;17.10;52.50;;;;;;5117068;27;20492;-86
2022/10/09 11:09:02;;;;;;;4.77;3.33;;;17.30;49.20;;;;;;5120160;27;20964;-86
2022/10/09 11:11:37;;;;;;;5.33;2.50;;;17.50;48.90;;;;;;5110769;27;20452;-86
2022/10/09 11:14:16;;;;;;;2.40;2.20;;;17.80;49.40;;;;;;5085700;28;20490;-88
2022/10/09 11:16:56;;;;;;;2.50;2.00;;;18.00;47.60;;;;;;5117228;27;20450;-86
2022/10/09 11:19:45;;;;;;;2.73;2.37;;;18.20;46.80;;;;;;5092865;27;20461;-86
2022/10/09 11:22:23;;;;;;;3.53;2.20;;;18.40;45.70;;;;;;5104073;27;20529;-86
2022/10/09 11:25:06;;;;;;;3.10;1.70;;;18.40;44.30;;;;;;5091113;27;20547;-86
2022/10/09 11:27:39;;;;;;;2.83;1.70;;;18.50;44.40;;;;;;5102337;27;20461;-88
2022/10/09 11:30:11;;;;;;;1.90;1.70;;;18.60;44.50;;;;;;5118358;27;20462;-85
2022/10/09 11:32:44;;;;;;;3.20;1.70;;;18.80;44.20;;;;;;5107207;27;20538;-86
2022/10/09 11:35:17;;;;;;;2.20;1.50;;;19.10;42.50;;;;;;5121316;27;20477;-85
2022/10/09 11:37:53;;;;;;;1.93;1.70;;;19.10;41.60;;;;;;5097171;27;20475;-87
2022/10/09 11:40:25;;;;;;;2.70;1.60;;;19.00;42.00;;;;;;5091500;27;20479;-86
2022/10/09 11:42:58;;;;;;;3.10;1.60;;;19.10;41.90;;;;;;5100200;27;20450;-86
2022/10/09 11:45:30;;;;;;;2.07;1.60;;;19.20;41.20;;;;;;5100697;27;20599;-87
2022/10/09 11:48:05;;;;;;;5.37;1.43;;;19.30;40.70;;;;;;5104090;27;21005;-87
2022/10/09 11:50:45;;;;;;;4.40;1.67;;;19.20;40.50;;;;;;5108775;27;20477;-86
2022/10/09 11:53:17;;;;;;;3.90;1.50;;;19.30;41.10;;;;;;5116122;27;20508;-89
2022/10/09 11:55:46;;;;;;;4.20;2.30;;;19.70;40.60;;;;;;5117245;27;20473;-90
2022/10/09 11:58:23;;;;;;;1.40;1.30;;;20.00;40.00;;;;;;5115153;27;20478;-86
2022/10/09 12:00:53;;;;;;;2.70;2.20;;;20.10;38.50;;;;;;5121535;27;20946;-86
2022/10/09 12:03:32;;;;;;;4.00;2.60;;;20.20;38.60;;;;;;5101413;27;20471;-86
2022/10/09 12:06:05;;;;;;;7.10;1.97;;;20.40;39.80;;;;;;5090202;27;20449;-86
2022/10/09 12:08:34;;;;;;;3.00;2.10;;;20.40;38.40;;;;;;5119756;27;20549;-87
2022/10/09 12:11:11;;;;;;;2.60;1.90;;;20.10;39.40;;;;;;5100745;27;21014;-87
2022/10/09 12:13:46;;;;;;;4.33;2.10;;;20.00;38.20;;;;;;5109501;27;20990;-85
2022/10/09 12:16:35;;;;;;;4.37;2.00;;;20.00;38.70;;;;;;5088909;28;20457;-86
2022/10/09 12:19:05;;;;;;;3.20;1.83;;;20.20;39.60;;;;;;5084565;28;20463;-84
2022/10/09 12:21:38;;;;;;;4.13;1.83;;;20.70;38.40;;;;;;5118292;27;20835;-85
2022/10/09 12:24:12;;;;;;;8.37;2.13;;;21.00;38.50;;;;;;5090573;27;20442;-85
2022/10/09 12:26:41;;;;;;;3.20;1.90;;;21.20;37.80;;;;;;5108163;27;20998;-86
2022/10/09 12:29:18;;;;;;;10.90;2.27;;;21.40;38.40;;;;;;5075283;28;20982;-86
2022/10/09 12:31:46;;;;;;;2.00;1.80;;;21.60;38.00;;;;;;5102729;27;20467;-85
2022/10/09 12:34:19;;;;;;;3.00;1.83;;;21.80;38.30;;;;;;5089645;27;20442;-86
2022/10/09 12:36:46;;;;;;;2.67;2.37;;;22.00;37.10;;;;;;5072191;27;20466;-86
2022/10/09 12:39:19;;;;;;;4.40;2.03;;;22.00;37.20;;;;;;5086928;27;20473;-87
2022/10/09 12:41:49;;;;;;;9.00;2.10;;;22.10;37.90;;;;;;5104814;28;20485;-85
2022/10/09 12:44:25;;;;;;;2.60;2.30;;;22.20;36.30;;;;;;5089451;28;20512;-85
2022/10/09 12:46:53;;;;;;;3.53;2.67;;;21.90;37.20;;;;;;5098482;28;20466;-86
2022/10/09 12:49:24;;;;;;;4.80;2.17;;;21.80;37.50;;;;;;5102178;28;20438;-87
2022/10/09 12:51:56;;;;;;;7.13;3.20;;;21.70;38.00;;;;;;5118974;27;20449;-87
2022/10/09 12:54:25;;;;;;;6.53;2.00;;;21.70;37.80;;;;;;5093047;27;20455;-86
2022/10/09 12:56:54;;;;;;;3.90;2.20;;;21.80;38.20;;;;;;5114053;27;20971;-85